Time;durP1;ratioP1;P1;durP2;ratioP2;P2;SDS_P1;SDS_P2;PMS_P1;PMS_P2;Temp;Humidity;BMP_temperature;BMP_pressure;BME280_temperature;BME280_humidity;BME280_pressure;Samples;Min_cycle;Max_cycle;Signal;HPM_P1;HPM_P2
2022/09/24 00:01:37;;;;;;;0.30;0.30;;;;;;;13.41;42.36;95454.94;5039136;28;20473;-71
2022/09/24 00:04:08;;;;;;;0.17;0.17;;;;;;;13.36;42.72;95457.56;5034250;28;20506;-71
2022/09/24 00:06:44;;;;;;;0.13;0.13;;;;;;;13.32;43.02;95456.50;5037139;28;20835;-69
2022/09/24 00:09:13;;;;;;;0.63;0.63;;;;;;;13.17;43.63;95450.09;5049277;28;20477;-72
2022/09/24 00:11:43;;;;;;;0.10;0.10;;;;;;;13.09;43.87;95455.09;5041542;28;20543;-71
2022/09/24 00:14:10;;;;;;;0.40;0.40;;;;;;;13.01;44.16;95456.31;5044857;28;20482;-69
2022/09/24 00:16:39;;;;;;;0.70;0.70;;;;;;;13.26;43.88;95457.50;5042101;28;20443;-70
2022/09/24 00:19:06;;;;;;;0.60;0.60;;;;;;;12.89;44.32;95453.13;5043919;28;20478;-70
2022/09/24 00:21:35;;;;;;;0.00;0.00;;;;;;;12.95;44.22;95454.75;5047691;28;20499;-69
2022/09/24 00:24:07;;;;;;;1.60;1.17;;;;;;;12.84;44.93;95460.19;5042623;28;20434;-69
2022/09/24 00:26:50;;;;;;;0.20;0.20;;;;;;;12.83;44.52;95454.13;5049688;28;20450;-70
2022/09/24 00:29:22;;;;;;;1.90;1.17;;;;;;;12.87;44.50;95457.84;5050119;28;20478;-69
2022/09/24 00:31:51;;;;;;;0.10;0.10;;;;;;;13.00;44.35;95449.50;5037089;28;20989;-69
2022/09/24 00:34:19;;;;;;;0.47;0.47;;;;;;;13.09;44.02;95455.88;5049576;28;20431;-70
2022/09/24 00:36:47;;;;;;;0.97;0.93;;;;;;;12.99;44.26;95452.38;5049556;28;20443;-69
2022/09/24 00:39:15;;;;;;;0.20;0.20;;;;;;;12.83;44.44;95433.09;5049179;28;20478;-69
2022/09/24 00:41:48;;;;;;;0.93;0.90;;;;;;;12.72;44.99;95452.50;5049389;28;20964;-72
2022/09/24 00:44:33;;;;;;;0.50;0.50;;;;;;;12.97;44.97;95449.22;5038437;28;21002;-71
2022/09/24 00:47:00;;;;;;;0.10;0.10;;;;;;;13.08;44.35;95443.75;5035054;28;20451;-71
2022/09/24 00:49:27;;;;;;;3.30;1.70;;;;;;;13.14;43.90;95440.09;5037494;28;20663;-69
2022/09/24 00:51:54;;;;;;;0.47;0.47;;;;;;;13.10;44.09;95436.41;5033071;28;20965;-70
2022/09/24 00:54:27;;;;;;;0.10;0.10;;;;;;;13.11;43.84;95429.31;5038197;28;20456;-69
2022/09/24 00:56:57;;;;;;;0.53;0.40;;;;;;;13.19;43.73;95442.75;5033046;28;20451;-69
2022/09/24 00:59:27;;;;;;;1.40;0.93;;;;;;;12.93;44.45;95433.16;5046478;28;21072;-69
2022/09/24 01:01:56;;;;;;;0.00;0.00;;;;;;;13.04;43.88;95428.75;5035334;28;21224;-71
2022/09/24 01:04:26;;;;;;;0.60;0.60;;;;;;;12.52;44.52;95431.34;5040367;28;20438;-71
2022/09/24 01:06:54;;;;;;;0.20;0.20;;;;;;;12.76;43.91;95431.75;5055801;28;21122;-71
2022/09/24 01:09:24;;;;;;;0.93;0.93;;;;;;;12.46;44.52;95432.38;5054837;28;20482;-71
2022/09/24 01:12:09;;;;;;;0.20;0.20;;;;;;;12.62;44.51;95436.69;5045661;28;20451;-70
2022/09/24 01:14:58;;;;;;;0.47;0.47;;;;;;;12.78;44.09;95440.16;5040293;28;20449;-69
2022/09/24 01:17:32;;;;;;;1.13;0.87;;;;;;;12.71;44.12;95440.41;5041221;28;20448;-71
2022/09/24 01:20:07;;;;;;;0.47;0.47;;;;;;;12.60;44.41;95438.78;5042844;28;21007;-71
2022/09/24 01:23:05;;;;;;;1.40;1.30;;;;;;;12.38;45.10;95438.09;5055204;28;20953;-71
2022/09/24 01:25:40;;;;;;;4.30;2.33;;;;;;;12.35;45.07;95438.63;5044697;28;20501;-69
2022/09/24 01:28:27;;;;;;;0.77;0.60;;;;;;;12.29;45.28;95442.25;5053469;28;20940;-70
2022/09/24 01:31:02;;;;;;;0.47;0.47;;;;;;;12.33;45.20;95427.56;5054653;28;21182;-69
2022/09/24 01:33:33;;;;;;;0.30;0.30;;;;;;;12.38;45.18;95430.22;5049701;28;20471;-69
2022/09/24 01:36:07;;;;;;;1.37;1.30;;;;;;;12.31;44.89;95434.91;5035976;28;20466;-69
2022/09/24 01:38:40;;;;;;;1.40;1.30;;;;;;;12.35;45.25;95436.00;5035589;28;21013;-67
2022/09/24 01:41:10;;;;;;;0.53;0.53;;;;;;;12.02;45.67;95441.50;5036010;28;20443;-69
2022/09/24 01:43:38;;;;;;;4.13;0.87;;;;;;;12.17;45.52;95433.75;5049052;28;20486;-70
2022/09/24 01:46:05;;;;;;;0.30;0.30;;;;;;;12.22;45.35;95426.69;5047775;28;20845;-69
2022/09/24 01:48:36;;;;;;;0.90;0.90;;;;;;;12.17;45.19;95436.38;5056063;28;20443;-70
2022/09/24 01:51:12;;;;;;;0.53;0.53;;;;;;;12.03;45.57;95443.09;5044758;28;20478;-69
2022/09/24 01:54:04;;;;;;;0.53;0.53;;;;;;;12.08;45.55;95440.50;5053602;28;20446;-70
2022/09/24 01:56:40;;;;;;;1.93;1.73;;;;;;;11.98;45.73;95445.69;5045585;28;20470;-70
2022/09/24 01:59:16;;;;;;;1.90;0.83;;;;;;;11.88;45.65;95448.19;5052858;28;20791;-69
2022/09/24 02:01:56;;;;;;;1.70;1.60;;;;;;;11.90;45.61;95444.28;5045164;28;20467;-69
2022/09/24 02:04:26;;;;;;;0.77;0.73;;;;;;;11.73;46.05;95453.34;5040508;28;20470;-70
2022/09/24 02:07:12;;;;;;;0.30;0.30;;;;;;;11.72;45.66;95457.78;5055545;28;20529;-71
2022/09/24 02:09:42;;;;;;;2.43;2.23;;;;;;;11.84;45.78;95458.41;5040820;28;20478;-69
2022/09/24 02:12:21;;;;;;;0.47;0.47;;;;;;;12.02;45.24;95458.03;5039141;28;20440;-72
2022/09/24 02:14:53;;;;;;;0.60;0.60;;;;;;;11.75;45.66;95452.03;5032686;28;20930;-70
2022/09/24 02:17:22;;;;;;;1.70;1.30;;;;;;;11.94;45.49;95460.34;5032225;28;20436;-70
2022/09/24 02:19:49;;;;;;;1.70;1.23;;;;;;;11.50;46.19;95458.84;5046195;28;20439;-69
2022/09/24 02:22:16;;;;;;;0.70;0.70;;;;;;;11.74;45.71;95465.41;5032198;28;20466;-71
2022/09/24 02:24:48;;;;;;;0.37;0.37;;;;;;;11.79;45.51;95474.13;5050281;28;20521;-70
2022/09/24 02:27:16;;;;;;;1.60;1.03;;;;;;;11.82;45.36;95470.22;5051765;28;20443;-70
2022/09/24 02:29:43;;;;;;;0.10;0.10;;;;;;;11.60;45.52;95486.00;5051493;28;20843;-70
2022/09/24 02:32:14;;;;;;;0.33;0.33;;;;;;;11.61;45.70;95482.31;5051770;28;20497;-69
2022/09/24 02:34:46;;;;;;;1.07;0.57;;;;;;;11.46;45.97;95491.88;5051594;28;20449;-68
2022/09/24 02:37:14;;;;;;;1.03;0.90;;;;;;;11.49;45.88;95488.75;5042949;28;20439;-71
2022/09/24 02:39:42;;;;;;;1.73;1.13;;;;;;;11.12;46.69;95489.38;5046338;28;20474;-67
2022/09/24 02:42:13;;;;;;;0.10;0.10;;;;;;;11.59;46.05;95483.59;5060123;28;20478;-69
2022/09/24 02:44:40;;;;;;;0.60;0.60;;;;;;;11.14;46.78;95486.50;5052071;28;20475;-69
2022/09/24 02:47:07;;;;;;;0.23;0.23;;;;;;;11.16;46.33;95490.50;5054578;28;20829;-71
2022/09/24 02:49:34;;;;;;;0.40;0.40;;;;;;;11.14;46.49;95492.56;5040659;28;20443;-71
2022/09/24 02:52:02;;;;;;;1.80;1.30;;;;;;;11.05;47.24;95498.47;5036116;28;20582;-71
2022/09/24 02:54:30;;;;;;;0.20;0.20;;;;;;;11.07;46.98;95489.31;5040319;28;20452;-71
2022/09/24 02:56:57;;;;;;;0.10;0.10;;;;;;;11.47;45.95;95501.31;5035024;28;20436;-71
2022/09/24 02:59:23;;;;;;;1.60;1.33;;;;;;;11.49;45.68;95505.28;5036416;28;20985;-68
2022/09/24 03:01:50;;;;;;;0.33;0.30;;;;;;;11.07;46.34;95507.69;5051606;28;20442;-71
2022/09/24 03:04:18;;;;;;;0.40;0.40;;;;;;;11.25;45.98;95498.72;5033116;28;21012;-69
2022/09/24 03:06:45;;;;;;;0.40;0.40;;;;;;;11.29;45.85;95493.78;5041140;28;20454;-69
2022/09/24 03:09:12;;;;;;;0.30;0.30;;;;;;;11.44;45.69;95499.19;5036981;28;20448;-71
2022/09/24 03:11:39;;;;;;;0.17;0.17;;;;;;;11.10;46.07;95504.56;5050924;28;20493;-71
2022/09/24 03:14:06;;;;;;;0.10;0.10;;;;;;;10.86;46.58;95505.81;5036351;28;20523;-71
2022/09/24 03:16:33;;;;;;;0.20;0.20;;;;;;;11.16;46.11;95500.97;5044351;28;20432;-68
2022/09/24 03:19:00;;;;;;;0.33;0.33;;;;;;;11.09;46.45;95495.09;5044253;28;20530;-70
2022/09/24 03:21:28;;;;;;;1.52;1.42;;;;;;;11.10;46.29;95499.31;5030891;28;20880;-69
2022/09/24 03:23:55;;;;;;;0.57;0.57;;;;;;;10.80;46.93;95501.53;5042639;28;20675;-68
2022/09/24 03:26:21;;;;;;;0.43;0.32;;;;;;;11.01;46.22;95508.66;5035364;28;20191;-69
2022/09/24 03:28:48;;;;;;;0.30;0.30;;;;;;;10.82;46.13;95499.47;5050557;28;20204;-69
2022/09/24 03:31:15;;;;;;;0.50;0.50;;;;;;;10.72;46.72;95507.22;5048426;28;20494;-70
2022/09/24 03:33:47;;;;;;;0.30;0.30;;;;;;;11.01;46.31;95507.84;5038998;28;20439;-71
2022/09/24 03:36:16;;;;;;;0.33;0.33;;;;;;;11.06;46.08;95511.34;5036613;28;20193;-71
2022/09/24 03:38:44;;;;;;;0.77;0.77;;;;;;;11.05;45.96;95512.38;5043191;28;20487;-70
2022/09/24 03:41:12;;;;;;;0.87;0.87;;;;;;;11.06;45.79;95513.94;5030854;28;20440;-70
2022/09/24 03:43:39;;;;;;;0.37;0.37;;;;;;;11.13;45.50;95511.94;5034988;28;20561;-70
2022/09/24 03:46:07;;;;;;;2.13;2.03;;;;;;;11.11;45.71;95519.25;5049222;28;20988;-69
2022/09/24 03:48:37;;;;;;;0.60;0.60;;;;;;;11.06;45.94;95524.44;5031349;28;20459;-69
2022/09/24 03:51:12;;;;;;;0.20;0.20;;;;;;;10.93;46.15;95516.91;5031109;28;20263;-69
2022/09/24 03:53:40;;;;;;;0.00;0.00;;;;;;;10.94;46.40;95523.78;5045122;28;20189;-70
2022/09/24 03:56:08;;;;;;;0.80;0.70;;;;;;;10.82;46.19;95515.19;5030495;28;20575;-71
2022/09/24 03:58:36;;;;;;;5.40;1.48;;;;;;;10.90;46.46;95522.66;5028822;28;20201;-71
2022/09/24 04:01:08;;;;;;;0.47;0.47;;;;;;;10.85;46.37;95517.34;5035759;28;20530;-70
2022/09/24 04:03:36;;;;;;;0.40;0.40;;;;;;;10.85;46.23;95525.22;5050324;28;20631;-72
2022/09/24 04:06:04;;;;;;;0.10;0.10;;;;;;;10.78;46.27;95529.84;5036382;28;20630;-71
2022/09/24 04:08:31;;;;;;;1.40;0.88;;;;;;;10.42;47.30;95530.31;5039041;28;20439;-71
2022/09/24 04:10:58;;;;;;;1.05;0.75;;;;;;;10.66;47.09;95531.75;5044390;28;20217;-70
2022/09/24 04:13:25;;;;;;;0.27;0.27;;;;;;;10.62;47.04;95525.38;5031048;28;20197;-70
2022/09/24 04:15:53;;;;;;;0.15;0.15;;;;;;;10.83;46.78;95527.28;5029377;28;21067;-70
2022/09/24 04:18:21;;;;;;;0.40;0.40;;;;;;;10.75;46.88;95530.31;5030268;28;20201;-70
2022/09/24 04:20:48;;;;;;;0.63;0.63;;;;;;;10.67;47.01;95538.59;5030497;28;20531;-71
2022/09/24 04:23:14;;;;;;;0.08;0.08;;;;;;;10.80;46.54;95538.22;5035719;28;20189;-71
2022/09/24 04:25:41;;;;;;;3.70;1.90;;;;;;;10.51;47.17;95538.59;5038439;28;20197;-71
2022/09/24 04:28:09;;;;;;;0.67;0.67;;;;;;;10.45;47.22;95537.72;5044536;28;20471;-70
2022/09/24 04:30:37;;;;;;;3.10;1.90;;;;;;;10.68;46.74;95545.41;5030466;28;20998;-71
2022/09/24 04:33:05;;;;;;;0.70;0.70;;;;;;;10.61;46.95;95550.03;5029503;28;21034;-69
2022/09/24 04:35:34;;;;;;;0.67;0.60;;;;;;;10.65;46.94;95540.66;5043153;28;20672;-73
2022/09/24 04:38:03;;;;;;;0.32;0.32;;;;;;;10.82;46.51;95551.91;5051969;28;20517;-68
2022/09/24 04:40:31;;;;;;;0.23;0.23;;;;;;;10.88;46.36;95558.00;5046704;28;20205;-71
2022/09/24 04:42:58;;;;;;;2.60;1.27;;;;;;;10.53;47.01;95558.28;5046365;28;20510;-69
2022/09/24 04:45:25;;;;;;;3.15;2.22;;;;;;;10.87;46.89;95559.84;5029760;28;20961;-71
2022/09/24 04:47:56;;;;;;;0.43;0.43;;;;;;;10.81;46.80;95550.31;5029362;28;20193;-70
2022/09/24 04:50:28;;;;;;;0.20;0.20;;;;;;;10.98;46.69;95551.06;5044415;28;20467;-71
2022/09/24 04:52:55;;;;;;;0.33;0.33;;;;;;;10.83;46.62;95550.06;5035373;28;20505;-72
2022/09/24 04:55:22;;;;;;;1.37;1.30;;;;;;;10.75;47.19;95560.97;5047617;28;20984;-71
2022/09/24 04:57:49;;;;;;;4.10;3.10;;;;;;;10.89;46.91;95542.03;5034598;28;21021;-71
2022/09/24 05:00:19;;;;;;;0.43;0.43;;;;;;;10.84;46.88;95554.28;5035167;28;20873;-71
2022/09/24 05:02:53;;;;;;;4.93;3.65;;;;;;;10.85;47.04;95556.69;5034273;28;20439;-69
2022/09/24 05:05:21;;;;;;;2.13;1.58;;;;;;;10.90;46.59;95546.25;5049348;28;20200;-70
2022/09/24 05:07:48;;;;;;;0.90;0.90;;;;;;;10.71;47.50;95555.41;5033759;28;20188;-68
2022/09/24 05:10:15;;;;;;;1.97;1.23;;;;;;;10.99;47.05;95557.13;5037863;28;20201;-70
2022/09/24 05:12:42;;;;;;;4.68;1.08;;;;;;;11.26;46.40;95557.22;5029243;28;20481;-70
2022/09/24 05:15:11;;;;;;;0.63;0.40;;;;;;;11.15;46.93;95557.09;5029660;28;20232;-69
2022/09/24 05:17:38;;;;;;;1.70;1.30;;;;;;;11.10;47.17;95554.41;5043374;28;20283;-72
2022/09/24 05:20:07;;;;;;;4.27;1.27;;;;;;;11.08;47.37;95556.47;5037010;28;20442;-71
2022/09/24 05:22:36;;;;;;;1.27;0.98;;;;;;;11.31;46.77;95546.78;5035072;28;20522;-69
2022/09/24 05:25:03;;;;;;;1.13;1.13;;;;;;;11.51;46.22;95549.66;5042145;28;20739;-70
2022/09/24 05:27:30;;;;;;;14.17;3.27;;;;;;;11.31;46.07;95555.47;5042351;28;20794;-71
2022/09/24 05:29:57;;;;;;;1.80;1.33;;;;;;;11.19;46.61;95563.44;5029236;28;20462;-69
2022/09/24 05:32:24;;;;;;;1.37;1.27;;;;;;;11.37;46.63;95558.94;5039653;28;20865;-70
2022/09/24 05:34:52;;;;;;;0.97;0.90;;;;;;;11.61;46.19;95562.88;5034527;28;20431;-70
2022/09/24 05:37:20;;;;;;;2.87;2.53;;;;;;;11.66;45.73;95565.63;5039361;28;20474;-70
2022/09/24 05:39:46;;;;;;;0.50;0.50;;;;;;;11.58;46.57;95560.75;5042561;28;20450;-69
2022/09/24 05:42:13;;;;;;;0.67;0.67;;;;;;;11.49;46.56;95568.28;5029179;28;20432;-68
2022/09/24 05:44:42;;;;;;;0.30;0.30;;;;;;;12.01;45.31;95573.88;5029014;28;20483;-69
2022/09/24 05:47:14;;;;;;;1.30;1.20;;;;;;;11.39;46.58;95572.59;5052320;28;20443;-70
2022/09/24 05:49:41;;;;;;;0.20;0.20;;;;;;;11.71;45.83;95576.19;5038878;28;20444;-69
2022/09/24 05:52:08;;;;;;;0.53;0.53;;;;;;;11.10;47.49;95580.63;5038342;28;20474;-70
2022/09/24 05:54:35;;;;;;;0.30;0.30;;;;;;;11.54;47.12;95575.41;5052628;28;20447;-70
2022/09/24 05:57:02;;;;;;;0.33;0.33;;;;;;;11.88;46.34;95571.63;5034394;28;20467;-70
2022/09/24 05:59:29;;;;;;;0.20;0.20;;;;;;;11.21;47.86;95571.88;5052441;28;20434;-70
2022/09/24 06:01:56;;;;;;;0.83;0.83;;;;;;;12.03;46.00;95574.41;5040435;28;20478;-71
2022/09/24 06:04:23;;;;;;;0.77;0.73;;;;;;;11.52;47.67;95582.72;5051184;28;20517;-69
2022/09/24 06:06:51;;;;;;;0.20;0.20;;;;;;;10.78;49.97;95590.13;5052693;28;20489;-69
2022/09/24 06:09:19;;;;;;;1.57;1.47;;;;;;;10.50;50.99;95590.19;5052027;28;20871;-71
2022/09/24 06:11:49;;;;;;;0.70;0.70;;;;;;;10.72;52.90;95577.97;5043448;28;20817;-70
2022/09/24 06:14:16;;;;;;;0.10;0.10;;;;;;;12.13;48.08;95579.78;5046468;28;20508;-68
2022/09/24 06:16:43;;;;;;;0.60;0.60;;;;;;;11.80;48.49;95579.97;5030974;28;20514;-69
2022/09/24 06:19:10;;;;;;;0.30;0.30;;;;;;;11.62;48.91;95593.38;5032218;28;20454;-70
2022/09/24 06:21:37;;;;;;;0.00;0.00;;;;;;;12.43;46.83;95574.81;5052196;28;20447;-72
2022/09/24 06:24:03;;;;;;;0.87;0.87;;;;;;;12.05;47.16;95590.72;5038849;28;20447;-69
2022/09/24 06:26:31;;;;;;;1.33;1.23;;;;;;;11.63;48.55;95585.25;5032050;28;20448;-71
2022/09/24 06:28:59;;;;;;;0.10;0.10;;;;;;;12.32;46.64;95582.88;5033669;28;20455;-70
2022/09/24 06:31:31;;;;;;;0.10;0.10;;;;;;;11.54;48.41;95591.16;5028726;28;20471;-70
2022/09/24 06:33:59;;;;;;;0.10;0.10;;;;;;;11.16;49.21;95590.16;5028803;28;20890;-73
2022/09/24 06:36:25;;;;;;;0.77;0.77;;;;;;;11.45;49.14;95603.13;5028638;28;20452;-71
2022/09/24 06:38:54;;;;;;;0.20;0.20;;;;;;;11.48;50.29;95600.03;5028893;28;20454;-71
2022/09/24 06:41:21;;;;;;;0.40;0.40;;;;;;;11.70;48.80;95600.81;5028828;28;20522;-72
2022/09/24 06:43:48;;;;;;;1.67;1.07;;;;;;;11.70;49.52;95608.72;5028850;28;20557;-70
2022/09/24 06:46:15;;;;;;;0.30;0.30;;;;;;;12.40;48.26;95596.34;5033458;28;20470;-73
2022/09/24 06:48:43;;;;;;;0.20;0.20;;;;;;;12.10;48.50;95596.03;5028855;28;20870;-71
2022/09/24 06:51:10;;;;;;;0.30;0.30;;;;;;;12.11;48.38;95597.63;5026894;28;20515;-72
2022/09/24 06:53:37;;;;;;;0.03;0.03;;;;;;;12.17;50.02;95597.41;5030572;28;20483;-73
2022/09/24 06:56:04;;;;;;;0.40;0.40;;;;;;;12.17;49.92;95592.16;5028528;28;20494;-72
2022/09/24 06:58:32;;;;;;;0.20;0.20;;;;;;;12.39;48.94;95596.59;5028752;28;20466;-71
2022/09/24 07:01:01;;;;;;;0.67;0.67;;;;;;;12.56;48.19;95584.91;5028849;28;20781;-71
2022/09/24 07:03:30;;;;;;;0.30;0.30;;;;;;;13.23;47.04;95594.88;5038552;28;20614;-71
2022/09/24 07:06:03;;;;;;;0.10;0.10;;;;;;;13.00;46.81;95593.38;5028549;28;21027;-70
2022/09/24 07:08:31;;;;;;;0.33;0.33;;;;;;;12.75;47.56;95601.91;5028944;28;20456;-71
2022/09/24 07:10:59;;;;;;;2.53;1.43;;;;;;;12.53;47.47;95601.19;5030193;28;20919;-72
2022/09/24 07:13:26;;;;;;;8.13;1.67;;;;;;;13.67;45.02;95601.41;5031533;28;20436;-67
2022/09/24 07:15:53;;;;;;;0.47;0.47;;;;;;;13.23;45.44;95585.94;5044253;28;20439;-67
2022/09/24 07:18:20;;;;;;;0.40;0.33;;;;;;;13.34;44.63;95596.53;5029973;28;20524;-68
2022/09/24 07:20:55;;;;;;;0.23;0.23;;;;;;;13.61;44.29;95600.59;5042316;28;20528;-69
2022/09/24 07:23:22;;;;;;;1.43;1.33;;;;;;;14.06;44.42;95594.72;5042514;28;20470;-67
2022/09/24 07:25:54;;;;;;;1.57;1.47;;;;;;;14.29;42.71;95588.22;5040416;28;20487;-67
2022/09/24 07:28:21;;;;;;;0.90;0.67;;;;;;;14.47;42.78;95591.13;5043414;28;20853;-69
2022/09/24 07:30:56;;;;;;;0.33;0.33;;;;;;;14.29;42.58;95588.22;5029847;28;20479;-70
2022/09/24 07:33:23;;;;;;;0.40;0.40;;;;;;;13.77;44.58;95583.03;5045472;28;20533;-71
2022/09/24 07:35:50;;;;;;;0.53;0.53;;;;;;;14.34;43.19;95586.38;5049720;28;20542;-68
2022/09/24 07:38:17;;;;;;;0.20;0.20;;;;;;;14.43;43.15;95578.75;5046463;28;20563;-68
2022/09/24 07:40:43;;;;;;;1.63;0.77;;;;;;;14.13;43.77;95580.25;5029633;28;20535;-67
2022/09/24 07:43:12;;;;;;;0.33;0.33;;;;;;;14.33;43.79;95590.06;5028639;28;20484;-68
2022/09/24 07:45:41;;;;;;;0.10;0.10;;;;;;;14.33;42.16;95579.50;5036969;28;20435;-70
2022/09/24 07:48:09;;;;;;;0.20;0.20;;;;;;;15.28;40.00;95576.03;5035984;28;20450;-69
2022/09/24 07:50:41;;;;;;;0.10;0.10;;;;;;;15.36;40.61;95572.06;5042127;28;20539;-68
2022/09/24 07:53:11;;;;;;;0.10;0.10;;;;;;;15.45;40.79;95562.56;5029262;28;20966;-69
2022/09/24 07:55:39;;;;;;;0.10;0.10;;;;;;;14.86;42.30;95568.47;5033203;28;20937;-73
2022/09/24 07:58:09;;;;;;;0.43;0.43;;;;;;;15.00;43.05;95574.78;5038639;28;20478;-70
2022/09/24 08:00:37;;;;;;;0.97;0.80;;;;;;;15.01;42.48;95565.81;5033653;28;20481;-73
2022/09/24 08:03:04;;;;;;;0.30;0.30;;;;;;;15.10;41.04;95571.31;5029363;28;20997;-71
2022/09/24 08:05:31;;;;;;;0.10;0.10;;;;;;;15.59;40.28;95566.19;5029359;28;20456;-72
2022/09/24 08:07:59;;;;;;;1.70;1.27;;;;;;;15.07;41.68;95564.72;5028782;28;20506;-74
2022/09/24 08:10:27;;;;;;;0.30;0.30;;;;;;;15.51;41.84;95570.19;5028929;28;20454;-64
2022/09/24 08:12:55;;;;;;;1.60;1.20;;;;;;;15.72;40.69;95565.63;5033606;28;20490;-67
2022/09/24 08:15:23;;;;;;;2.60;1.10;;;;;;;16.39;39.61;95555.22;5048492;28;20444;-70
2022/09/24 08:17:50;;;;;;;1.97;1.77;;;;;;;16.51;39.38;95563.63;5034662;28;20431;-69
2022/09/24 08:20:17;;;;;;;0.83;0.83;;;;;;;16.63;38.85;95566.72;5039190;28;20501;-69
2022/09/24 08:22:44;;;;;;;2.93;1.30;;;;;;;16.71;38.92;95552.09;5030344;28;20478;-63
2022/09/24 08:25:11;;;;;;;0.60;0.60;;;;;;;16.79;38.55;95559.41;5047725;28;20443;-64
2022/09/24 08:27:38;;;;;;;0.37;0.30;;;;;;;16.22;39.35;95565.38;5027520;28;20436;-63
2022/09/24 08:30:05;;;;;;;0.73;0.43;;;;;;;16.23;38.61;95559.03;5041302;28;20470;-64
2022/09/24 08:32:33;;;;;;;0.30;0.30;;;;;;;16.15;37.76;95543.72;5048513;28;20483;-63
2022/09/24 08:34:59;;;;;;;0.20;0.20;;;;;;;15.80;39.93;95551.88;5048542;28;20933;-63
2022/09/24 08:37:27;;;;;;;0.53;0.53;;;;;;;16.39;38.86;95551.75;5031250;28;20448;-63
2022/09/24 08:39:55;;;;;;;1.23;0.90;;;;;;;16.64;38.04;95544.47;5028312;28;20447;-64
2022/09/24 08:43:00;;;;;;;0.77;0.77;;;;;;;16.83;38.16;95550.66;5042586;28;20822;-63
2022/09/24 08:48:36;;;;;;;0.67;0.30;;;;;;;16.44;39.31;95552.50;5028723;28;21015;-63
2022/09/24 08:51:10;;;;;;;0.93;0.93;;;;;;;16.52;38.43;95537.94;5034592;28;20455;-63
2022/09/24 08:54:00;;;;;;;5.77;3.97;;;;;;;16.91;38.65;95542.13;5042654;28;20471;-64
2022/09/24 08:56:31;;;;;;;0.40;0.40;;;;;;;17.15;38.63;95537.63;5032468;28;20451;-61
2022/09/24 08:59:21;;;;;;;8.80;1.33;;;;;;;16.97;38.27;95535.69;5028105;28;21049;-63
2022/09/24 09:02:02;;;;;;;0.60;0.60;;;;;;;17.29;37.26;95535.13;5039428;28;21030;-62
2022/09/24 09:04:36;;;;;;;0.93;0.93;;;;;;;17.47;38.19;95529.13;5047752;28;20541;-62
2022/09/24 09:07:06;;;;;;;0.67;0.67;;;;;;;18.47;36.24;95532.31;5038882;28;20436;-62
2022/09/24 09:09:53;;;;;;;0.37;0.37;;;;;;;18.00;36.00;95517.31;5029057;28;20790;-61
2022/09/24 09:12:29;;;;;;;2.33;1.23;;;;;;;17.96;36.17;95511.00;5047674;28;21000;-62
2022/09/24 09:15:05;;;;;;;0.50;0.50;;;;;;;18.47;35.04;95511.06;5044609;28;20962;-60
2022/09/24 09:17:42;;;;;;;0.60;0.60;;;;;;;18.63;34.90;95504.44;5028040;28;20887;-62
2022/09/24 09:20:21;;;;;;;0.30;0.30;;;;;;;18.40;35.81;95509.81;5033953;28;21235;-61
2022/09/24 09:22:52;;;;;;;0.30;0.30;;;;;;;19.40;33.23;95507.34;5039807;28;20435;-66
2022/09/24 09:25:27;;;;;;;4.57;2.03;;;;;;;19.58;33.32;95501.91;5050806;28;20449;-64
2022/09/24 09:28:14;;;;;;;0.73;0.70;;;;;;;19.44;35.06;95501.16;5051841;28;20450;-62
2022/09/24 09:30:47;;;;;;;0.50;0.50;;;;;;;19.86;33.21;95494.69;5039656;28;20470;-61
2022/09/24 09:33:44;;;;;;;0.43;0.43;;;;;;;19.58;33.97;95495.84;5051760;28;20525;-61
2022/09/24 09:36:23;;;;;;;0.60;0.60;;;;;;;19.73;34.09;95480.34;5039589;28;20465;-61
2022/09/24 09:39:05;;;;;;;0.10;0.10;;;;;;;19.89;33.59;95483.47;5035869;28;20517;-61
2022/09/24 09:41:49;;;;;;;0.80;0.80;;;;;;;20.27;32.81;95471.47;5039156;28;20460;-63
2022/09/24 09:44:27;;;;;;;1.30;1.20;;;;;;;20.77;32.34;95467.56;5038224;28;20850;-63
2022/09/24 09:47:19;;;;;;;0.10;0.10;;;;;;;20.38;32.20;95470.16;5051410;28;20456;-60
2022/09/24 09:49:51;;;;;;;1.10;1.10;;;;;;;20.59;32.83;95471.22;5051415;28;20450;-64
2022/09/24 09:52:21;;;;;;;1.60;1.50;;;;;;;21.53;32.15;95457.56;5038416;28;20475;-63
2022/09/24 09:54:47;;;;;;;10.43;2.77;;;;;;;21.27;32.42;95444.16;5037625;28;20467;-57
2022/09/24 09:57:19;;;;;;;0.87;0.87;;;;;;;21.55;32.43;95444.69;5030386;28;20447;-64
2022/09/24 09:59:51;;;;;;;0.50;0.50;;;;;;;21.68;32.29;95443.75;5031742;28;21022;-63
2022/09/24 10:02:23;;;;;;;1.07;0.97;;;;;;;21.54;32.53;95435.13;5032063;28;20455;-63
2022/09/24 10:04:55;;;;;;;0.40;0.40;;;;;;;20.55;31.76;95440.94;5030549;28;20272;-63
2022/09/24 10:07:23;;;;;;;3.30;1.30;;;;;;;20.71;30.90;95444.81;5030343;28;20455;-64
2022/09/24 10:10:12;;;;;;;0.70;0.70;;;;;;;21.39;29.62;95433.66;5030504;28;20530;-64
2022/09/24 10:12:40;;;;;;;0.50;0.50;;;;;;;21.69;30.35;95440.00;5032233;28;21006;-60
2022/09/24 10:15:18;;;;;;;0.77;0.60;;;;;;;21.83;30.61;95435.34;5030235;28;20960;-62
2022/09/24 10:17:49;;;;;;;0.67;0.67;;;;;;;20.62;31.47;95427.22;5029557;28;20482;-61
2022/09/24 10:20:27;;;;;;;0.60;0.60;;;;;;;21.80;30.32;95415.44;5030914;28;20203;-60
2022/09/24 10:23:01;;;;;;;0.30;0.30;;;;;;;21.89;30.07;95418.88;5038143;28;20516;-60
2022/09/24 10:25:30;;;;;;;5.60;3.63;;;;;;;22.71;29.30;95418.66;5028852;28;20451;-59
2022/09/24 10:31:10;;;;;;;0.63;0.63;;;;;;;22.05;29.15;95416.53;5027257;28;20288;-61
2022/09/24 10:33:44;;;;;;;5.60;2.10;;;;;;;22.38;28.13;95404.25;5027320;28;21037;-62
2022/09/24 10:36:26;;;;;;;0.30;0.30;;;;;;;22.12;28.98;95411.50;5029052;28;20279;-65
2022/09/24 10:39:14;;;;;;;0.60;0.60;;;;;;;22.82;28.36;95408.41;5029557;28;20201;-62
2022/09/24 10:41:49;;;;;;;0.60;0.60;;;;;;;22.81;26.52;95404.19;5030471;28;20570;-64
2022/09/24 10:44:17;;;;;;;0.53;0.53;;;;;;;22.53;26.49;95406.44;5030132;28;20723;-63
2022/09/24 10:46:47;;;;;;;5.70;5.00;;;;;;;22.39;27.41;95399.69;5029685;28;20244;-63
2022/09/24 10:49:32;;;;;;;1.03;1.03;;;;;;;22.33;27.34;95395.63;5029594;28;20440;-65
2022/09/24 10:52:19;;;;;;;0.30;0.30;;;;;;;22.54;27.82;95386.63;5029856;28;20211;-66
2022/09/24 10:54:49;;;;;;;0.50;0.50;;;;;;;22.89;27.36;95382.75;5030388;28;20251;-66
2022/09/24 10:57:30;;;;;;;0.60;0.60;;;;;;;22.76;27.55;95383.75;5029391;28;20754;-65
2022/09/24 11:00:08;;;;;;;0.67;0.67;;;;;;;22.73;27.72;95379.06;5033560;28;20856;-66
2022/09/24 11:03:18;;;;;;;0.83;0.83;;;;;;;23.70;27.43;95390.53;5039314;28;20193;-67
2022/09/24 11:06:03;;;;;;;0.50;0.50;;;;;;;23.67;26.72;95391.16;5030250;28;20201;-66
2022/09/24 11:08:50;;;;;;;1.23;0.40;;;;;;;23.43;25.47;95374.97;5044301;28;20208;-67
2022/09/24 11:11:47;;;;;;;0.87;0.53;;;;;;;23.64;23.90;95376.56;5030517;28;20231;-66
2022/09/24 11:14:47;;;;;;;0.13;0.13;;;;;;;23.56;22.98;95380.06;5030093;28;20225;-66
2022/09/24 11:17:24;;;;;;;2.83;1.07;;;;;;;23.80;23.80;95379.41;5036254;28;20762;-66
2022/09/24 11:20:06;;;;;;;0.20;0.20;;;;;;;23.83;22.12;95373.44;5050006;28;20265;-66
2022/09/24 11:22:33;;;;;;;0.67;0.67;;;;;;;23.74;24.97;95367.38;5042434;28;20620;-63
2022/09/24 11:25:30;;;;;;;0.50;0.50;;;;;;;23.35;23.03;95365.09;5030119;28;20285;-67
2022/09/24 11:28:36;;;;;;;3.67;0.93;;;;;;;23.05;22.02;95362.41;5039945;28;20200;-65
2022/09/24 11:31:20;;;;;;;0.10;0.10;;;;;;;22.77;22.15;95353.25;5038891;28;20287;-63
2022/09/24 11:34:14;;;;;;;0.10;0.10;;;;;;;23.52;21.88;95351.63;5049127;28;20721;-65
2022/09/24 11:36:53;;;;;;;0.33;0.30;;;;;;;23.41;22.74;95351.22;5048808;28;20192;-62
2022/09/24 11:39:29;;;;;;;0.37;0.37;;;;;;;23.46;22.64;95347.56;5043066;28;20227;-65
2022/09/24 11:42:15;;;;;;;0.20;0.20;;;;;;;23.33;23.25;95346.72;5042682;28;20218;-63
2022/09/24 11:44:53;;;;;;;0.53;0.53;;;;;;;23.22;23.04;95342.03;5029317;28;20225;-66
2022/09/24 11:48:04;;;;;;;0.30;0.30;;;;;;;23.52;22.87;95346.28;5042764;28;20211;-66
2022/09/24 11:50:41;;;;;;;0.30;0.30;;;;;;;24.00;22.08;95333.13;5028666;28;20216;-66
2022/09/24 11:53:40;;;;;;;0.40;0.40;;;;;;;24.48;22.08;95330.63;5042671;28;20239;-66
2022/09/24 11:56:25;;;;;;;0.20;0.20;;;;;;;24.93;21.35;95331.38;5032913;28;20231;-65
2022/09/24 11:59:01;;;;;;;0.50;0.50;;;;;;;24.84;20.34;95321.88;5044105;28;20250;-69
2022/09/24 12:01:32;;;;;;;0.20;0.20;;;;;;;25.33;21.75;95322.63;5040570;28;20200;-68
2022/09/24 12:04:09;;;;;;;0.30;0.30;;;;;;;24.63;21.39;95321.16;5029143;28;20259;-68